Terminal Aerodrome Forecast
Issued by NWS Cleveland, OH

Home | Current Version | Previous Version | Graphics & Text | Print | Product List | Glossary Off
Versions: 1 2 3 4 5 6 7 8 9 10 11 12 13 14 15 16 17 18 19 20 21 22 23 24 25 26 27 28

000
FTUS41 KCLE 212000 AAB
TAFCLE
TAF AMD
KCLE 212046Z 2121/2224 22007KT P6SM FEW035
     FM220100 18006KT P6SM SCT200
     FM221100 19008KT P6SM BKN040 OVC080 PROB30 2212/2215 6SM -FZRA
      OVC025
     FM221500 20012KT 5SM -RA BR BKN025 OVC050=

USA.gov is the U.S. government's official web portal to all federal, state and local government web resources and services.